Time;durP1;ratioP1;P1;durP2;ratioP2;P2;SDS_P1;SDS_P2;PMS_P1;PMS_P2;Temp;Humidity;BMP_temperature;BMP_pressure;BME280_temperature;BME280_humidity;BME280_pressure;Samples;Min_cycle;Max_cycle;Signal;HPM_P1;HPM_P2
2023/01/22 00:01:21;;;;;;;;;;;11.00;91.80;;;;;;5054551;28;19920;-72
2023/01/22 00:03:48;;;;;;;;;;;11.20;91.90;;;;;;5054392;28;20011;-72
2023/01/22 00:06:13;;;;;;;;;;;10.80;91.70;;;;;;5054758;28;20341;-73
2023/01/22 00:08:39;;;;;;;;;;;10.90;91.70;;;;;;5035627;28;20003;-71
2023/01/22 00:11:05;;;;;;;;;;;11.20;91.80;;;;;;5053686;28;19925;-72
2023/01/22 00:13:30;;;;;;;;;;;10.90;91.60;;;;;;5054329;28;19920;-72
2023/01/22 00:15:56;;;;;;;;;;;11.20;91.70;;;;;;5054068;28;19921;-72
2023/01/22 00:18:22;;;;;;;;;;;11.10;91.70;;;;;;5054619;28;19920;-71
2023/01/22 00:20:48;;;;;;;;;;;11.00;91.70;;;;;;5053684;28;19917;-71
2023/01/22 00:23:13;;;;;;;;;;;11.20;91.70;;;;;;5054185;28;19921;-72
2023/01/22 00:25:39;;;;;;;;;;;11.20;91.50;;;;;;5051991;28;20291;-73
2023/01/22 00:28:05;;;;;;;;;;;11.10;91.70;;;;;;5040104;28;20012;-73
2023/01/22 00:30:31;;;;;;;;;;;11.00;91.70;;;;;;5046646;28;20367;-72
2023/01/22 00:32:56;;;;;;;;;;;11.30;91.80;;;;;;5045365;28;20336;-72
2023/01/22 00:35:22;;;;;;;;;;;11.10;91.80;;;;;;5054223;28;19921;-72
2023/01/22 00:37:48;;;;;;;;;;;11.00;91.70;;;;;;5055060;28;20031;-71
2023/01/22 00:40:14;;;;;;;;;;;11.20;91.80;;;;;;5051574;28;20343;-72
2023/01/22 00:42:39;;;;;;;;;;;11.30;91.80;;;;;;5052716;28;19927;-72
2023/01/22 00:45:06;;;;;;;;;;;11.30;91.80;;;;;;5053781;28;19921;-71
2023/01/22 00:47:32;;;;;;;;;;;11.00;91.70;;;;;;5037474;28;19928;-71
2023/01/22 00:49:58;;;;;;;;;;;11.10;91.70;;;;;;5043034;28;19968;-71
2023/01/22 00:52:24;;;;;;;;;;;11.00;91.70;;;;;;5040649;28;19939;-72
2023/01/22 00:54:49;;;;;;;;;;;11.30;91.90;;;;;;5040671;28;19924;-71
2023/01/22 00:57:20;;;;;;;;;;;11.20;91.80;;;;;;5035824;28;20046;-72
2023/01/22 00:59:46;;;;;;;;;;;11.20;91.70;;;;;;5053526;28;19921;-71
2023/01/22 01:02:12;;;;;;;;;;;11.40;91.80;;;;;;5039135;28;19967;-72
2023/01/22 01:04:37;;;;;;;;;;;11.20;91.80;;;;;;5036628;28;19916;-73
2023/01/22 01:07:03;;;;;;;;;;;11.20;91.80;;;;;;5023833;28;20333;-72
2023/01/22 01:09:29;;;;;;;;;;;11.20;91.80;;;;;;5033621;28;19973;-73
2023/01/22 01:11:54;;;;;;;;;;;11.10;91.80;;;;;;5042069;28;19924;-72
2023/01/22 01:14:20;;;;;;;;;;;11.10;91.70;;;;;;5054001;28;19921;-73
2023/01/22 01:16:47;;;;;;;;;;;11.20;91.80;;;;;;5053615;28;19927;-71
2023/01/22 01:19:14;;;;;;;;;;;11.40;91.90;;;;;;5053536;28;19920;-72
2023/01/22 01:21:40;;;;;;;;;;;11.30;91.80;;;;;;5052781;28;19983;-72
2023/01/22 01:24:05;;;;;;;;;;;11.10;91.70;;;;;;5051818;28;20374;-72
2023/01/22 01:26:33;;;;;;;;;;;11.30;91.80;;;;;;5054725;28;20290;-72
2023/01/22 01:28:59;;;;;;;;;;;11.20;91.80;;;;;;5057692;28;20347;-72
2023/01/22 01:31:24;;;;;;;;;;;11.10;91.80;;;;;;5051020;28;20026;-72
2023/01/22 01:33:50;;;;;;;;;;;11.30;91.90;;;;;;5037740;28;19951;-72
2023/01/22 01:36:17;;;;;;;;;;;11.20;91.90;;;;;;5037621;28;19928;-71
2023/01/22 01:38:43;;;;;;;;;;;11.00;91.80;;;;;;5038056;28;19921;-72
2023/01/22 01:41:10;;;;;;;;;;;11.30;91.90;;;;;;5049204;28;19920;-73
2023/01/22 01:43:35;;;;;;;;;;;11.20;91.90;;;;;;5038909;28;20328;-72
2023/01/22 01:46:01;;;;;;;;;;;11.20;91.80;;;;;;5056038;28;19921;-72
2023/01/22 01:48:32;;;;;;;;;;;11.10;91.80;;;;;;5038942;28;19927;-73
2023/01/22 01:51:05;;;;;;;;;;;11.30;91.80;;;;;;5039881;28;20378;-72
2023/01/22 01:53:31;;;;;;;;;;;11.10;91.60;;;;;;5035911;28;19921;-73
2023/01/22 01:55:57;;;;;;;;;;;11.20;91.70;;;;;;5037789;28;19921;-71
2023/01/22 01:58:22;;;;;;;;;;;11.10;91.70;;;;;;5017448;28;20271;-71
2023/01/22 02:00:49;;;;;;;;;;;11.10;91.60;;;;;;5058235;28;20011;-72
2023/01/22 02:03:15;;;;;;;;;;;;;;;;;;5045695;28;19925;-74
2023/01/22 02:05:41;;;;;;;;;;;10.80;91.30;;;;;;5032174;28;20386;-73
2023/01/22 02:08:06;;;;;;;;;;;11.20;91.70;;;;;;5057422;28;19975;-72
2023/01/22 02:10:32;;;;;;;;;;;11.20;91.70;;;;;;5057226;28;19921;-71
2023/01/22 02:12:58;;;;;;;;;;;11.10;91.70;;;;;;5055681;28;19927;-72
2023/01/22 02:15:24;;;;;;;;;;;11.20;91.70;;;;;;5056744;28;19979;-72
2023/01/22 02:17:50;;;;;;;;;;;11.00;91.70;;;;;;5039554;28;19964;-73
2023/01/22 02:20:15;;;;;;;;;;;11.20;91.70;;;;;;5056961;28;19956;-72
2023/01/22 02:22:41;;;;;;;;;;;11.20;91.70;;;;;;5038141;28;20322;-72
2023/01/22 02:25:07;;;;;;;;;;;11.10;91.60;;;;;;5038287;28;19927;-71
2023/01/22 02:27:32;;;;;;;;;;;11.40;91.70;;;;;;5054750;28;19999;-73
2023/01/22 02:29:58;;;;;;;;;;;11.20;91.70;;;;;;5035816;28;20007;-73
2023/01/22 02:32:24;;;;;;;;;;;11.30;91.80;;;;;;5044836;28;19935;-71
2023/01/22 02:34:49;;;;;;;;;;;11.00;91.70;;;;;;5029379;28;19927;-71
2023/01/22 02:37:15;;;;;;;;;;;10.90;91.60;;;;;;5053206;28;19932;-72
2023/01/22 02:39:40;;;;;;;;;;;11.30;91.70;;;;;;5050619;28;19928;-71
2023/01/22 02:42:06;;;;;;;;;;;11.10;91.50;;;;;;5051551;28;19966;-72
2023/01/22 02:44:32;;;;;;;;;;;11.20;91.60;;;;;;5036056;28;19921;-71
2023/01/22 02:46:58;;;;;;;;;;;11.20;91.60;;;;;;5036825;28;20400;-72
2023/01/22 02:49:23;;;;;;;;;;;11.00;91.50;;;;;;5050783;28;20063;-72
2023/01/22 02:51:49;;;;;;;;;;;11.10;91.50;;;;;;5050130;28;19924;-71
2023/01/22 02:54:14;;;;;;;;;;;11.20;91.70;;;;;;5026311;28;19925;-72
2023/01/22 02:56:40;;;;;;;;;;;11.30;91.70;;;;;;5037957;28;19952;-70
2023/01/22 02:59:06;;;;;;;;;;;11.00;91.60;;;;;;5056005;28;19927;-72
2023/01/22 03:01:31;;;;;;;;;;;11.10;91.60;;;;;;5038165;28;19920;-71
2023/01/22 03:03:57;;;;;;;;;;;11.10;91.50;;;;;;5037738;28;19928;-70
2023/01/22 03:06:24;;;;;;;;;;;11.30;91.50;;;;;;5054719;28;19921;-71
2023/01/22 03:08:56;;;;;;;;;;;11.10;91.40;;;;;;5056049;28;19975;-71
2023/01/22 03:11:22;;;;;;;;;;;11.30;91.40;;;;;;5053777;28;19979;-72
2023/01/22 03:22:00;;;;;;;;;;;11.20;91.50;;;;;;5038847;28;19953;-71
2023/01/22 03:24:26;;;;;;;;;;;11.00;91.40;;;;;;5037297;28;20015;-71
2023/01/22 03:26:52;;;;;;;;;;;11.00;91.30;;;;;;5055487;28;19923;-72
2023/01/22 03:29:17;;;;;;;;;;;11.10;91.40;;;;;;5037302;28;19921;-72
2023/01/22 03:31:47;;;;;;;;;;;10.80;91.30;;;;;;5056250;28;19966;-71
2023/01/22 03:34:15;;;;;;;;;;;11.30;91.30;;;;;;5054449;28;19967;-72
2023/01/22 03:36:41;;;;;;;;;;;11.00;91.20;;;;;;5039306;28;19921;-72
2023/01/22 03:39:07;;;;;;;;;;;11.00;91.20;;;;;;5039349;28;19921;-71
2023/01/22 03:41:32;;;;;;;;;;;11.10;91.20;;;;;;5053356;28;19996;-71
2023/01/22 03:44:00;;;;;;;;;;;11.00;91.20;;;;;;5044898;28;19927;-72
2023/01/22 03:46:26;;;;;;;;;;;11.20;91.20;;;;;;5055146;28;20015;-72
2023/01/22 03:48:51;;;;;;;;;;;11.00;91.10;;;;;;5053520;28;20356;-73
2023/01/22 03:51:17;;;;;;;;;;;10.90;91.00;;;;;;5036070;28;19968;-73
2023/01/22 03:53:43;;;;;;;;;;;11.10;91.10;;;;;;5039023;28;20366;-71
2023/01/22 03:56:12;;;;;;;;;;;10.90;91.10;;;;;;5039269;28;19929;-72
2023/01/22 03:58:38;;;;;;;;;;;10.90;91.10;;;;;;5055067;28;19921;-72
2023/01/22 04:01:04;;;;;;;;;;;11.30;91.20;;;;;;5054591;28;19928;-73
2023/01/22 04:03:30;;;;;;;;;;;11.00;91.00;;;;;;5035099;28;19921;-72
2023/01/22 04:05:59;;;;;;;;;;;10.90;91.00;;;;;;5044828;28;20365;-72
2023/01/22 04:08:24;;;;;;;;;;;;;;;;;;5034774;28;19921;-71
2023/01/22 04:10:50;;;;;;;;;;;11.00;91.00;;;;;;5034970;28;19928;-71
2023/01/22 04:13:16;;;;;;;;;;;10.90;91.00;;;;;;5039979;28;19974;-72
2023/01/22 04:15:42;;;;;;;;;;;11.20;91.10;;;;;;5054066;28;19921;-72
2023/01/22 04:18:08;;;;;;;;;;;11.10;91.00;;;;;;5054125;28;19964;-72
2023/01/22 04:20:33;;;;;;;;;;;11.10;91.00;;;;;;5053733;28;19964;-72
2023/01/22 04:22:59;;;;;;;;;;;;;;;;;;5047502;28;20289;-73
2023/01/22 04:25:25;;;;;;;;;;;11.00;91.00;;;;;;5053448;28;19925;-73
2023/01/22 04:27:51;;;;;;;;;;;11.10;91.00;;;;;;5036697;28;19927;-72
2023/01/22 04:30:16;;;;;;;;;;;11.20;91.00;;;;;;5053629;28;19921;-72
2023/01/22 04:32:42;;;;;;;;;;;10.80;90.90;;;;;;5054563;28;19921;-74
2023/01/22 04:35:08;;;;;;;;;;;11.00;91.00;;;;;;5053838;28;19921;-72
2023/01/22 04:37:34;;;;;;;;;;;10.90;90.90;;;;;;5045065;28;19921;-71
2023/01/22 04:40:00;;;;;;;;;;;;;;;;;;5045182;28;19928;-72
2023/01/22 04:42:28;;;;;;;;;;;11.10;90.90;;;;;;5034009;28;19956;-71
2023/01/22 04:44:54;;;;;;;;;;;11.30;91.00;;;;;;5034613;28;19928;-71
2023/01/22 04:47:19;;;;;;;;;;;10.80;90.80;;;;;;5037951;28;20019;-73
2023/01/22 04:49:45;;;;;;;;;;;11.10;90.90;;;;;;5025394;28;20378;-72
2023/01/22 04:52:11;;;;;;;;;;;;;;;;;;5033763;28;19917;-72
2023/01/22 04:54:37;;;;;;;;;;;10.90;90.90;;;;;;5034135;28;19972;-71
2023/01/22 04:57:02;;;;;;;;;;;11.00;90.90;;;;;;5016905;28;19968;-72
2023/01/22 04:59:28;;;;;;;;;;;10.90;90.90;;;;;;5016909;28;19924;-73
2023/01/22 05:01:53;;;;;;;;;;;10.80;90.90;;;;;;5035840;28;20007;-71
2023/01/22 05:04:20;;;;;;;;;;;11.00;90.90;;;;;;5026282;28;19917;-71
2023/01/22 05:06:46;;;;;;;;;;;10.90;90.80;;;;;;5026531;28;20409;-73
2023/01/22 05:09:12;;;;;;;;;;;10.70;90.80;;;;;;5043519;28;19921;-73
2023/01/22 05:11:37;;;;;;;;;;;10.80;90.80;;;;;;5055024;28;19928;-73
2023/01/22 05:14:03;;;;;;;;;;;10.90;90.80;;;;;;5032458;28;19927;-73
2023/01/22 05:16:29;;;;;;;;;;;11.00;90.80;;;;;;5038471;28;20413;-72
2023/01/22 05:18:54;;;;;;;;;;;11.00;90.80;;;;;;5057663;28;19928;-72
2023/01/22 05:21:20;;;;;;;;;;;10.80;90.80;;;;;;5051888;28;19921;-72
2023/01/22 05:23:46;;;;;;;;;;;11.20;90.90;;;;;;5010645;28;19920;-72
2023/01/22 05:26:11;;;;;;;;;;;10.80;90.80;;;;;;5056068;28;19920;-72
2023/01/22 05:28:37;;;;;;;;;;;10.90;90.70;;;;;;5050935;28;20374;-73
2023/01/22 05:31:02;;;;;;;;;;;10.50;90.80;;;;;;5022924;28;19921;-72
2023/01/22 05:33:28;;;;;;;;;;;;;;;;;;5046284;28;20035;-74
2023/01/22 05:35:55;;;;;;;;;;;10.90;90.80;;;;;;5042651;28;19925;-73
2023/01/22 05:38:21;;;;;;;;;;;10.80;90.80;;;;;;5056833;28;19920;-72
2023/01/22 05:40:46;;;;;;;;;;;11.00;90.90;;;;;;5057595;28;19920;-73
2023/01/22 05:43:12;;;;;;;;;;;11.00;90.80;;;;;;5032465;28;20003;-73
2023/01/22 05:45:38;;;;;;;;;;;10.90;90.80;;;;;;5038491;28;19921;-73
2023/01/22 05:48:03;;;;;;;;;;;;;;;;;;5037027;28;19979;-73
2023/01/22 05:50:29;;;;;;;;;;;10.90;90.80;;;;;;5045381;28;19925;-73
2023/01/22 05:52:55;;;;;;;;;;;10.70;90.80;;;;;;5057556;28;20401;-72
2023/01/22 05:55:20;;;;;;;;;;;10.80;90.90;;;;;;5052047;28;19975;-73
2023/01/22 05:57:46;;;;;;;;;;;10.80;90.80;;;;;;5034110;28;20325;-71
2023/01/22 06:00:12;;;;;;;;;;;11.00;90.90;;;;;;5038541;28;19917;-72
2023/01/22 06:02:38;;;;;;;;;;;10.80;90.70;;;;;;5037257;28;19921;-72
2023/01/22 06:05:03;;;;;;;;;;;11.10;90.90;;;;;;5037156;28;20075;-73
2023/01/22 06:07:29;;;;;;;;;;;11.00;90.50;;;;;;5056564;28;19927;-72
2023/01/22 06:09:55;;;;;;;;;;;;;;;;;;5057193;28;19931;-73
2023/01/22 06:12:21;;;;;;;;;;;11.00;90.80;;;;;;5052642;28;19917;-72
2023/01/22 06:14:46;;;;;;;;;;;10.90;90.80;;;;;;5052062;28;19920;-73
2023/01/22 06:17:12;;;;;;;;;;;10.80;90.70;;;;;;5041895;28;20424;-72
2023/01/22 06:19:38;;;;;;;;;;;11.10;90.80;;;;;;5056404;28;19943;-72
2023/01/22 06:22:04;;;;;;;;;;;;;;;;;;5057294;28;19928;-73
2023/01/22 06:24:29;;;;;;;;;;;11.00;90.80;;;;;;5036888;28;19921;-71
2023/01/22 06:26:56;;;;;;;;;;;10.90;90.80;;;;;;5038032;28;19928;-73
2023/01/22 06:29:22;;;;;;;;;;;11.10;90.90;;;;;;5041464;28;19932;-73
2023/01/22 06:31:47;;;;;;;;;;;11.00;90.90;;;;;;5038697;28;20263;-73
2023/01/22 06:34:13;;;;;;;;;;;10.90;90.90;;;;;;5038735;28;19967;-72
2023/01/22 06:36:39;;;;;;;;;;;10.90;90.90;;;;;;5055845;28;20366;-72
2023/01/22 06:39:04;;;;;;;;;;;11.00;90.90;;;;;;5035260;28;19947;-73
2023/01/22 06:41:30;;;;;;;;;;;10.90;90.90;;;;;;5002457;28;20007;-71
2023/01/22 06:43:56;;;;;;;;;;;10.90;90.90;;;;;;5037182;28;19928;-73
2023/01/22 06:46:21;;;;;;;;;;;10.90;90.90;;;;;;5041385;28;20018;-72
2023/01/22 06:48:47;;;;;;;;;;;11.00;91.00;;;;;;5043482;28;19927;-73
2023/01/22 06:51:13;;;;;;;;;;;11.20;91.00;;;;;;5036154;28;19925;-71
2023/01/22 06:53:38;;;;;;;;;;;10.70;90.80;;;;;;5036177;28;19927;-71
2023/01/22 06:56:04;;;;;;;;;;;11.00;90.90;;;;;;5036229;28;19925;-71
2023/01/22 06:58:30;;;;;;;;;;;11.00;90.90;;;;;;5036443;28;20329;-71
2023/01/22 07:01:02;;;;;;;;;;;10.90;90.90;;;;;;5042683;28;19928;-73
2023/01/22 07:03:28;;;;;;;;;;;11.20;91.10;;;;;;4999824;28;19928;-73
2023/01/22 07:05:57;;;;;;;;;;;10.90;91.00;;;;;;5035942;28;19921;-72
2023/01/22 07:08:23;;;;;;;;;;;10.80;91.00;;;;;;5049442;28;19946;-73
2023/01/22 07:10:49;;;;;;;;;;;11.20;91.10;;;;;;5056910;28;19921;-73
2023/01/22 07:13:15;;;;;;;;;;;11.20;91.10;;;;;;5038480;28;19986;-72
2023/01/22 07:15:41;;;;;;;;;;;10.70;91.00;;;;;;5055239;28;20461;-73
2023/01/22 07:18:07;;;;;;;;;;;;;;;;;;5055594;28;19920;-72
2023/01/22 07:20:33;;;;;;;;;;;;;;;;;;5037562;28;20318;-73
2023/01/22 07:22:58;;;;;;;;;;;10.80;91.00;;;;;;5036141;28;20303;-72
2023/01/22 07:25:24;;;;;;;;;;;10.90;91.00;;;;;;5036970;28;19947;-72
2023/01/22 07:27:50;;;;;;;;;;;10.90;91.00;;;;;;5036578;28;19921;-71
2023/01/22 07:30:16;;;;;;;;;;;10.90;91.00;;;;;;5055714;28;20371;-73
2023/01/22 07:32:41;;;;;;;;;;;11.20;91.10;;;;;;5054914;28;19921;-72
2023/01/22 07:35:07;;;;;;;;;;;11.10;91.10;;;;;;5036692;28;19947;-72
2023/01/22 07:37:33;;;;;;;;;;;11.00;91.10;;;;;;5042982;28;19927;-72
2023/01/22 07:39:58;;;;;;;;;;;10.90;91.00;;;;;;5055153;28;19921;-73
2023/01/22 07:42:24;;;;;;;;;;;11.00;91.10;;;;;;5055204;28;20024;-73
2023/01/22 07:44:50;;;;;;;;;;;10.80;90.90;;;;;;5032325;28;19921;-72
2023/01/22 07:47:16;;;;;;;;;;;11.00;90.90;;;;;;5039936;28;19921;-73
2023/01/22 07:49:41;;;;;;;;;;;10.80;90.80;;;;;;5054562;28;20282;-72
2023/01/22 07:52:07;;;;;;;;;;;;;;;;;;5055090;28;20015;-73
2023/01/22 07:54:35;;;;;;;;;;;11.00;90.90;;;;;;5036718;28;19935;-72
2023/01/22 07:57:01;;;;;;;;;;;11.10;91.00;;;;;;5055326;28;20066;-71
2023/01/22 07:59:27;;;;;;;;;;;10.90;90.90;;;;;;5054560;28;19928;-72
2023/01/22 08:01:53;;;;;;;;;;;11.10;91.00;;;;;;5054999;28;19920;-73
2023/01/22 08:04:19;;;;;;;;;;;;;;;;;;5041707;28;20401;-74
2023/01/22 08:06:44;;;;;;;;;;;11.00;91.00;;;;;;5052164;28;19925;-72
2023/01/22 08:09:10;;;;;;;;;;;11.00;90.90;;;;;;5055529;28;19943;-73
2023/01/22 08:11:36;;;;;;;;;;;11.20;91.00;;;;;;5047163;28;19921;-72
2023/01/22 08:14:01;;;;;;;;;;;10.90;90.90;;;;;;5035110;28;19921;-73
2023/01/22 08:16:27;;;;;;;;;;;10.90;90.90;;;;;;5027822;28;19921;-73
2023/01/22 08:18:53;;;;;;;;;;;10.90;90.90;;;;;;5035375;28;19974;-73
2023/01/22 08:21:18;;;;;;;;;;;11.00;91.00;;;;;;5054813;28;19917;-73
2023/01/22 08:23:44;;;;;;;;;;;11.10;91.00;;;;;;5037293;28;20383;-73
2023/01/22 08:26:10;;;;;;;;;;;11.00;91.00;;;;;;5036667;28;19920;-72
2023/01/22 08:28:35;;;;;;;;;;;11.00;90.90;;;;;;5054871;28;19921;-74
2023/01/22 08:31:01;;;;;;;;;;;11.30;91.00;;;;;;5031638;28;19924;-73
2023/01/22 08:33:27;;;;;;;;;;;11.00;91.00;;;;;;5035410;28;19944;-72
2023/01/22 08:35:53;;;;;;;;;;;11.00;90.90;;;;;;5035068;28;19968;-71
2023/01/22 08:38:18;;;;;;;;;;;10.90;90.90;;;;;;5032824;28;19964;-73
2023/01/22 08:40:47;;;;;;;;;;;11.30;91.00;;;;;;5034805;28;19921;-72
2023/01/22 08:43:13;;;;;;;;;;;11.00;90.90;;;;;;5053761;28;19956;-72
2023/01/22 08:45:39;;;;;;;;;;;11.00;90.90;;;;;;5021054;28;19956;-73
2023/01/22 08:48:05;;;;;;;;;;;11.20;90.90;;;;;;5037034;28;20393;-73
2023/01/22 08:50:30;;;;;;;;;;;11.00;90.90;;;;;;5036465;28;19920;-72
2023/01/22 08:52:56;;;;;;;;;;;11.10;90.90;;;;;;5053189;28;20003;-72
2023/01/22 08:55:22;;;;;;;;;;;11.20;90.90;;;;;;5054210;28;19924;-71
2023/01/22 08:57:51;;;;;;;;;;;11.00;90.80;;;;;;5054584;28;19928;-72
2023/01/22 09:00:17;;;;;;;;;;;11.10;90.80;;;;;;5052483;28;19974;-72
2023/01/22 09:02:43;;;;;;;;;;;11.30;90.90;;;;;;5042501;28;19921;-71
2023/01/22 09:05:09;;;;;;;;;;;;;;;;;;5034669;28;19917;-71
2023/01/22 09:07:35;;;;;;;;;;;11.20;90.90;;;;;;5035445;28;19929;-71
2023/01/22 09:10:00;;;;;;;;;;;11.40;90.90;;;;;;5036145;28;19921;-71
2023/01/22 09:12:26;;;;;;;;;;;11.50;90.90;;;;;;5036274;28;19920;-73
2023/01/22 09:14:51;;;;;;;;;;;11.30;90.90;;;;;;5036987;28;20007;-72
2023/01/22 09:17:17;;;;;;;;;;;11.30;90.90;;;;;;5054381;28;19920;-72
2023/01/22 09:19:43;;;;;;;;;;;11.40;90.90;;;;;;5039843;28;19925;-72
2023/01/22 09:22:08;;;;;;;;;;;11.40;90.90;;;;;;5029502;28;19924;-71
2023/01/22 09:24:35;;;;;;;;;;;;;;;;;;5053788;28;19925;-72
2023/01/22 09:27:01;;;;;;;;;;;;;;;;;;5052646;28;19920;-74
2023/01/22 09:29:27;;;;;;;;;;;11.20;90.80;;;;;;5053105;28;19928;-71
2023/01/22 09:31:52;;;;;;;;;;;11.30;90.80;;;;;;5035937;28;20290;-73
2023/01/22 09:34:18;;;;;;;;;;;11.50;90.90;;;;;;5053291;28;19921;-73
2023/01/22 09:36:44;;;;;;;;;;;11.30;90.80;;;;;;5035152;28;19925;-73
2023/01/22 09:39:10;;;;;;;;;;;11.20;90.80;;;;;;5050836;28;20099;-71
2023/01/22 09:41:36;;;;;;;;;;;11.30;90.80;;;;;;5041491;28;19993;-70
2023/01/22 09:44:08;;;;;;;;;;;11.30;90.80;;;;;;5034408;28;19920;-73
2023/01/22 09:46:37;;;;;;;;;;;11.40;90.80;;;;;;5034489;28;20004;-72
2023/01/22 09:49:10;;;;;;;;;;;11.30;90.80;;;;;;5053274;28;20015;-71
2023/01/22 09:51:36;;;;;;;;;;;11.20;90.80;;;;;;5038738;28;19927;-72
2023/01/22 09:54:02;;;;;;;;;;;;;;;;;;5029085;28;19921;-73
2023/01/22 09:56:29;;;;;;;;;;;11.40;90.90;;;;;;5052276;28;20336;-72
2023/01/22 09:58:55;;;;;;;;;;;11.30;90.80;;;;;;5057797;28;19925;-72
2023/01/22 10:01:20;;;;;;;;;;;11.30;90.80;;;;;;5047385;28;19921;-74
2023/01/22 10:03:48;;;;;;;;;;;11.40;90.80;;;;;;5045207;28;20341;-72
2023/01/22 10:06:14;;;;;;;;;;;;;;;;;;5023912;28;20003;-74
2023/01/22 10:08:53;;;;;;;;;;;11.70;90.40;;;;;;5053570;28;19925;-68
2023/01/22 10:11:19;;;;;;;;;;;11.60;90.70;;;;;;5058818;28;19921;-71
2023/01/22 10:13:45;;;;;;;;;;;11.60;90.70;;;;;;5058540;28;19954;-74
2023/01/22 10:16:11;;;;;;;;;;;11.90;90.80;;;;;;5030098;28;19924;-72
2023/01/22 10:19:09;;;;;;;;;;;11.80;90.70;;;;;;5051641;28;19968;-75
2023/01/22 10:21:42;;;;;;;;;;;11.80;90.70;;;;;;4997186;28;19969;-78
2023/01/22 10:24:10;;;;;;;;;;;11.70;90.60;;;;;;4993912;28;19937;-77
2023/01/22 10:26:37;;;;;;;;;;;11.80;90.70;;;;;;5002048;28;19922;-73
2023/01/22 10:29:07;;;;;;;;;;;11.60;90.50;;;;;;4993870;28;19922;-78
2023/01/22 10:31:39;;;;;;;;;;;11.70;90.60;;;;;;4986030;28;20380;-70
2023/01/22 10:34:29;;;;;;;;;;;12.20;90.70;;;;;;4979601;28;20005;-75
2023/01/22 10:36:58;;;;;;;;;;;11.90;90.60;;;;;;4997235;28;19926;-69
2023/01/22 10:39:24;;;;;;;;;;;11.80;90.60;;;;;;4994422;28;19926;-74
2023/01/22 10:41:50;;;;;;;;;;;;;;;;;;4996539;28;20072;-67
2023/01/22 10:44:17;;;;;;;;;;;;;;;;;;4996503;28;19922;-72
2023/01/22 10:46:45;;;;;;;;;;;;;;;;;;4995238;28;20021;-73
2023/01/22 10:49:13;;;;;;;;;;;11.80;90.50;;;;;;4980990;28;19925;-72
2023/01/22 10:51:39;;;;;;;;;;;12.00;90.50;;;;;;4979559;28;19921;-72
2023/01/22 10:54:17;;;;;;;;;;;11.90;90.50;;;;;;4979281;28;19921;-73
2023/01/22 10:56:43;;;;;;;;;;;;;;;;;;5008016;28;19968;-73
2023/01/22 10:59:19;;;;;;;;;;;12.40;90.50;;;;;;5035697;28;19983;-73
2023/01/22 11:01:46;;;;;;;;;;;11.90;90.40;;;;;;5038655;28;19931;-72
2023/01/22 11:04:42;;;;;;;;;;;11.90;90.40;;;;;;5040110;28;19920;-71
2023/01/22 11:07:09;;;;;;;;;;;12.30;90.40;;;;;;5052676;28;19928;-66
2023/01/22 11:09:38;;;;;;;;;;;12.20;90.00;;;;;;5010291;28;19943;-71
2023/01/22 11:12:04;;;;;;;;;;;;;;;;;;5040125;28;19924;-70
2023/01/22 11:14:34;;;;;;;;;;;12.40;90.40;;;;;;5074296;28;19944;-73
2023/01/22 11:17:02;;;;;;;;;;;12.10;90.40;;;;;;5025751;28;20397;-74
2023/01/22 11:19:28;;;;;;;;;;;12.20;90.40;;;;;;5025025;28;19928;-74
2023/01/22 11:21:54;;;;;;;;;;;12.30;90.50;;;;;;5019638;28;20436;-72
2023/01/22 11:24:43;;;;;;;;;;;12.10;90.40;;;;;;5036268;28;19971;-77
2023/01/22 11:27:28;;;;;;;;;;;12.10;90.50;;;;;;5035442;28;20465;-74
2023/01/22 11:30:14;;;;;;;;;;;12.00;90.40;;;;;;4998895;28;19987;-73
2023/01/22 11:32:40;;;;;;;;;;;;;;;;;;5018163;28;20276;-75
2023/01/22 11:35:12;;;;;;;;;;;11.80;90.30;;;;;;5033688;28;19921;-72
2023/01/22 11:37:58;;;;;;;;;;;12.00;90.50;;;;;;5040572;28;19921;-73
2023/01/22 11:40:31;;;;;;;;;;;12.00;90.40;;;;;;5055795;28;20011;-72
2023/01/22 11:42:57;;;;;;;;;;;12.10;90.50;;;;;;5055822;28;20011;-74
2023/01/22 11:45:27;;;;;;;;;;;12.00;90.50;;;;;;5037677;28;19967;-74
2023/01/22 11:48:14;;;;;;;;;;;12.00;90.50;;;;;;5039021;28;19921;-74
2023/01/22 11:50:48;;;;;;;;;;;11.90;90.30;;;;;;5002297;28;19953;-74
2023/01/22 11:53:26;;;;;;;;;;;12.10;90.60;;;;;;5028779;28;19929;-74
2023/01/22 11:55:55;;;;;;;;;;;12.00;90.50;;;;;;5019323;28;20007;-74
2023/01/22 11:58:26;;;;;;;;;;;12.10;90.60;;;;;;5035627;28;19959;-73
2023/01/22 12:00:52;;;;;;;;;;;;;;;;;;5042414;28;20454;-74
2023/01/22 12:03:21;;;;;;;;;;;12.20;90.60;;;;;;5055474;28;19928;-74
2023/01/22 12:06:11;;;;;;;;;;;12.00;90.60;;;;;;5056858;28;19921;-73
2023/01/22 12:08:43;;;;;;;;;;;12.10;90.60;;;;;;5053253;28;19927;-73
2023/01/22 12:11:15;;;;;;;;;;;12.10;90.70;;;;;;5043116;28;19921;-72
2023/01/22 12:13:59;;;;;;;;;;;12.00;90.70;;;;;;5053710;28;19964;-74
2023/01/22 12:16:32;;;;;;;;;;;11.80;90.60;;;;;;5055609;28;19928;-72
2023/01/22 12:19:07;;;;;;;;;;;12.20;90.70;;;;;;5039794;28;19921;-79
2023/01/22 12:21:51;;;;;;;;;;;11.80;90.60;;;;;;5071644;28;19921;-78
2023/01/22 12:24:19;;;;;;;;;;;11.70;90.60;;;;;;5049931;28;19921;-74
2023/01/22 12:26:55;;;;;;;;;;;12.10;90.70;;;;;;5058147;28;20003;-72
2023/01/22 12:29:23;;;;;;;;;;;12.00;90.70;;;;;;5038206;28;20071;-72
2023/01/22 12:31:50;;;;;;;;;;;;;;;;;;5051135;28;19920;-78
2023/01/22 12:34:22;;;;;;;;;;;11.60;90.20;;;;;;5066298;28;20398;-70
2023/01/22 12:36:54;;;;;;;;;;;11.80;90.60;;;;;;5025731;28;19928;-75
2023/01/22 12:39:28;;;;;;;;;;;11.90;90.70;;;;;;5090179;28;19920;-79
2023/01/22 12:42:04;;;;;;;;;;;12.10;90.70;;;;;;5091589;28;19931;-72
2023/01/22 12:44:55;;;;;;;;;;;11.90;90.70;;;;;;5064917;28;19921;-78
2023/01/22 12:47:28;;;;;;;;;;;12.00;90.70;;;;;;5061474;28;19925;-79
2023/01/22 12:49:55;;;;;;;;;;;;;;;;;;5070431;28;19979;-74
2023/01/22 12:52:35;;;;;;;;;;;12.10;90.70;;;;;;5063689;28;20015;-68
2023/01/22 12:55:04;;;;;;;;;;;11.80;90.80;;;;;;5038703;28;19989;-69
2023/01/22 12:57:37;;;;;;;;;;;11.80;90.70;;;;;;5030535;28;20282;-78
2023/01/22 13:00:03;;;;;;;;;;;;;;;;;;5049619;28;19929;-75
2023/01/22 13:02:39;;;;;;;;;;;11.90;90.80;;;;;;5038430;28;19928;-72
2023/01/22 13:05:18;;;;;;;;;;;12.30;90.90;;;;;;5043565;28;19921;-73
2023/01/22 13:07:43;;;;;;;;;;;11.90;90.80;;;;;;5035042;28;19972;-75
2023/01/22 13:10:18;;;;;;;;;;;12.00;90.80;;;;;;5035230;28;19945;-79
2023/01/22 13:12:46;;;;;;;;;;;11.80;90.70;;;;;;5051097;28;19931;-79
2023/01/22 13:15:23;;;;;;;;;;;12.00;90.80;;;;;;5048808;28;20346;-79
2023/01/22 13:17:54;;;;;;;;;;;12.10;90.80;;;;;;5063796;28;19927;-78
2023/01/22 13:20:20;;;;;;;;;;;11.80;90.70;;;;;;5066092;28;19927;-79
2023/01/22 13:22:46;;;;;;;;;;;11.80;90.80;;;;;;5072042;28;19983;-79
2023/01/22 13:25:12;;;;;;;;;;;;;;;;;;5057078;28;20401;-75
2023/01/22 13:27:38;;;;;;;;;;;12.10;90.90;;;;;;5052714;28;19930;-72
2023/01/22 13:30:04;;;;;;;;;;;;;;;;;;5038570;28;20303;-75
2023/01/22 13:32:29;;;;;;;;;;;11.90;90.80;;;;;;5038433;28;19921;-74
2023/01/22 13:35:02;;;;;;;;;;;11.80;90.80;;;;;;5021476;28;19921;-72
2023/01/22 13:37:29;;;;;;;;;;;11.70;90.80;;;;;;5037819;28;19921;-74
2023/01/22 13:39:58;;;;;;;;;;;11.80;90.80;;;;;;5019168;28;19928;-71
2023/01/22 13:42:26;;;;;;;;;;;12.10;90.90;;;;;;5005925;28;20397;-72
2023/01/22 13:44:52;;;;;;;;;;;12.10;90.90;;;;;;5034138;28;20004;-74
2023/01/22 13:47:23;;;;;;;;;;;11.90;90.80;;;;;;5055947;28;20418;-74
2023/01/22 13:49:48;;;;;;;;;;;11.90;90.80;;;;;;5020878;28;19921;-73
2023/01/22 13:52:15;;;;;;;;;;;11.80;90.80;;;;;;5054076;28;19927;-74
2023/01/22 13:54:42;;;;;;;;;;;11.90;90.70;;;;;;5056810;28;19923;-74
2023/01/22 13:57:10;;;;;;;;;;;11.80;90.80;;;;;;5039419;28;19920;-73
2023/01/22 13:59:36;;;;;;;;;;;11.90;90.60;;;;;;5039747;28;20390;-72
2023/01/22 14:02:31;;;;;;;;;;;11.80;90.80;;;;;;5039693;28;19920;-73
2023/01/22 14:04:57;;;;;;;;;;;12.00;90.90;;;;;;5040385;28;20385;-74
2023/01/22 14:07:32;;;;;;;;;;;11.70;90.80;;;;;;5040275;28;19980;-73
2023/01/22 14:10:10;;;;;;;;;;;11.60;90.70;;;;;;5022151;28;19924;-73
2023/01/22 14:12:35;;;;;;;;;;;11.80;90.80;;;;;;5040095;28;19921;-74
2023/01/22 14:15:01;;;;;;;;;;;11.80;90.80;;;;;;5057945;28;19927;-74
2023/01/22 14:17:32;;;;;;;;;;;12.00;90.80;;;;;;5039696;28;20015;-72
2023/01/22 14:19:59;;;;;;;;;;;;;;;;;;5056716;28;19928;-73
2023/01/22 14:22:24;;;;;;;;;;;12.10;90.90;;;;;;5057291;28;20351;-73
2023/01/22 14:24:53;;;;;;;;;;;12.00;90.90;;;;;;5058301;28;20031;-73
2023/01/22 14:27:20;;;;;;;;;;;11.90;90.80;;;;;;5057012;28;19924;-74
2023/01/22 14:29:45;;;;;;;;;;;12.20;90.90;;;;;;5057852;28;19920;-73
2023/01/22 14:32:11;;;;;;;;;;;12.10;90.90;;;;;;5058148;28;20366;-73
2023/01/22 14:34:37;;;;;;;;;;;12.00;90.90;;;;;;5064975;28;19921;-79
2023/01/22 14:37:05;;;;;;;;;;;11.80;90.80;;;;;;5071202;28;19920;-78
2023/01/22 14:39:32;;;;;;;;;;;11.80;90.80;;;;;;5050401;28;19928;-79